createdAt,value
2023-02-08T00:01:01.702Z,100.00
2023-02-08T00:03:07.378Z,100.00
2023-02-08T00:05:12.745Z,100.00
2023-02-08T00:07:22.497Z,100.00
2023-02-08T00:09:30.561Z,100.00
2023-02-08T00:11:36.797Z,100.00
2023-02-08T00:13:43.779Z,100.00
2023-02-08T00:15:50.203Z,100.00
2023-02-08T00:17:55.565Z,100.00
2023-02-08T00:20:01.140Z,100.00
2023-02-08T00:22:06.050Z,100.00
2023-02-08T00:24:13.827Z,100.00
2023-02-08T00:26:19.086Z,100.00
2023-02-08T00:28:24.153Z,100.00
2023-02-08T00:30:29.867Z,100.00
2023-02-08T00:32:34.803Z,100.00
2023-02-08T00:34:39.714Z,100.00
2023-02-08T00:36:44.589Z,100.00
2023-02-08T00:38:50.114Z,100.00
2023-02-08T00:40:57.617Z,100.00
2023-02-08T00:43:02.911Z,100.00
2023-02-08T00:45:08.287Z,100.00
2023-02-08T00:47:13.082Z,100.00
2023-02-08T00:49:18.130Z,100.00
2023-02-08T00:51:22.757Z,100.00
2023-02-08T00:53:27.974Z,100.00
2023-02-08T00:55:32.915Z,100.00
2023-02-08T00:57:40.673Z,100.00
2023-02-08T00:59:45.637Z,100.00
2023-02-08T01:01:50.512Z,100.00
2023-02-08T01:03:55.411Z,100.00
2023-02-08T01:06:04.559Z,100.00
2023-02-08T01:08:11.994Z,100.00
2023-02-08T01:10:16.883Z,100.00
2023-02-08T01:12:21.765Z,100.00
2023-02-08T01:14:29.647Z,100.00
2023-02-08T01:16:36.338Z,100.00
2023-02-08T01:18:41.746Z,100.00
2023-02-08T01:20:46.608Z,100.00
2023-02-08T01:22:51.435Z,100.00
2023-02-08T01:24:56.379Z,100.00
2023-02-08T01:27:01.397Z,100.00
2023-02-08T01:29:08.839Z,100.00
2023-02-08T01:31:18.694Z,100.00
2023-02-08T01:33:23.506Z,100.00
2023-02-08T01:35:28.336Z,100.00
2023-02-08T01:37:33.183Z,100.00
2023-02-08T01:39:38.144Z,100.00
2023-02-08T01:41:46.823Z,100.00
2023-02-08T01:44:10.526Z,100.00
2023-02-08T01:46:17.997Z,100.00
2023-02-08T01:48:26.674Z,100.00
2023-02-08T01:50:38.163Z,100.00
2023-02-08T01:52:46.877Z,100.00
2023-02-08T01:54:55.594Z,100.00
2023-02-08T01:57:00.785Z,100.00
2023-02-08T01:59:08.917Z,100.00
2023-02-08T02:01:17.442Z,100.00
2023-02-08T02:03:24.033Z,100.00
2023-02-08T02:05:32.666Z,100.00
2023-02-08T02:07:37.547Z,100.00
2023-02-08T02:09:46.848Z,100.00
2023-02-08T02:11:54.390Z,100.00
2023-02-08T02:14:00.338Z,100.00
2023-02-08T02:16:08.003Z,100.00
2023-02-08T02:18:19.187Z,100.00
2023-02-08T02:20:29.757Z,100.00
2023-02-08T02:22:57.756Z,100.00
2023-02-08T02:25:35.590Z,100.00
2023-02-08T02:28:17.796Z,100.00
2023-02-08T02:31:08.004Z,100.00
2023-02-08T02:33:31.484Z,100.00
2023-02-08T02:35:45.913Z,100.00
2023-02-08T02:38:03.144Z,100.00
2023-02-08T02:40:15.951Z,100.00
2023-02-08T02:42:51.918Z,100.00
2023-02-08T02:45:08.554Z,100.00
2023-02-08T02:47:22.698Z,100.00
2023-02-08T02:49:37.786Z,100.00
2023-02-08T02:51:49.262Z,100.00
2023-02-08T02:53:58.894Z,100.00
2023-02-08T02:56:08.320Z,100.00
2023-02-08T02:58:14.946Z,100.00
2023-02-08T03:00:25.383Z,100.00
2023-02-08T03:02:31.393Z,100.00
2023-02-08T03:04:58.149Z,100.00
2023-02-08T03:07:12.635Z,100.00
2023-02-08T03:09:45.649Z,100.00
2023-02-08T03:11:59.269Z,100.00
2023-02-08T03:14:25.327Z,100.00
2023-02-08T03:16:34.739Z,100.00
2023-02-08T03:18:50.716Z,100.00
2023-02-08T03:21:05.462Z,100.00
2023-02-08T03:23:15.690Z,100.00
2023-02-08T03:25:26.302Z,100.00
2023-02-08T03:27:36.083Z,100.00
2023-02-08T03:29:47.046Z,100.00
2023-02-08T03:31:58.986Z,100.00
2023-02-08T03:34:08.904Z,100.00
2023-02-08T03:36:25.123Z,100.00
2023-02-08T03:38:34.204Z,100.00
2023-02-08T03:40:43.063Z,100.00
2023-02-08T03:42:51.218Z,100.00
2023-02-08T03:45:00.490Z,100.00
2023-02-08T03:47:10.934Z,100.00
2023-02-08T03:49:19.833Z,100.00
2023-02-08T03:51:28.959Z,100.00
2023-02-08T03:53:38.486Z,100.00
2023-02-08T03:55:48.258Z,100.00
2023-02-08T03:57:58.175Z,100.00
2023-02-08T04:00:08.606Z,100.00
2023-02-08T04:02:22.701Z,100.00
2023-02-08T04:04:30.905Z,100.00
2023-02-08T04:06:38.520Z,100.00
2023-02-08T04:08:46.374Z,100.00
2023-02-08T04:10:51.702Z,100.00
2023-02-08T04:12:56.586Z,100.00
2023-02-08T04:15:01.388Z,100.00
2023-02-08T04:17:06.998Z,100.00
2023-02-08T04:19:11.930Z,100.00
2023-02-08T04:21:16.857Z,100.00
2023-02-08T04:23:24.305Z,100.00
2023-02-08T04:25:29.493Z,100.00
2023-02-08T04:27:34.071Z,100.00
2023-02-08T04:29:39.054Z,100.00
2023-02-08T04:31:43.873Z,100.00
2023-02-08T04:33:48.892Z,100.00
2023-02-08T04:35:53.552Z,100.00
2023-02-08T04:37:58.605Z,100.00
2023-02-08T04:40:06.325Z,100.00
2023-02-08T04:42:12.563Z,100.00
2023-02-08T04:44:17.717Z,100.00
2023-02-08T04:46:22.705Z,100.00
2023-02-08T04:48:27.362Z,100.00
2023-02-08T04:50:32.522Z,100.00
2023-02-08T04:52:39.704Z,100.00
2023-02-08T04:54:44.593Z,100.00
2023-02-08T04:56:52.040Z,100.00
2023-02-08T04:58:57.063Z,100.00
2023-02-08T05:01:01.906Z,100.00
2023-02-08T05:03:07.228Z,100.00
2023-02-08T05:05:12.101Z,100.00
2023-02-08T05:07:17.039Z,100.00
2023-02-08T05:09:21.838Z,100.00
2023-02-08T05:11:29.613Z,100.00
2023-02-08T05:13:37.052Z,100.00
2023-02-08T05:15:41.993Z,100.00
2023-02-08T05:17:46.866Z,100.00
2023-02-08T05:19:51.751Z,100.00
2023-02-08T05:21:56.575Z,100.00
2023-02-08T05:24:01.825Z,100.00
2023-02-08T05:26:09.248Z,100.00
2023-02-08T05:28:14.157Z,100.00
2023-02-08T05:30:21.581Z,100.00
2023-02-08T05:32:26.492Z,100.00
2023-02-08T05:34:31.339Z,100.00
2023-02-08T05:36:38.620Z,100.00
2023-02-08T05:38:43.669Z,100.00
2023-02-08T05:40:48.248Z,100.00
2023-02-08T05:42:53.080Z,100.00
2023-02-08T05:44:58.218Z,100.00
2023-02-08T05:47:05.948Z,100.00
2023-02-08T05:49:13.244Z,100.00
2023-02-08T05:51:18.195Z,100.00
2023-02-08T05:53:23.058Z,100.00
2023-02-08T05:55:28.789Z,100.00
2023-02-08T05:57:35.739Z,100.00
2023-02-08T05:59:42.838Z,100.00
2023-02-08T06:01:47.880Z,100.00
2023-02-08T06:03:56.358Z,100.00
2023-02-08T06:06:03.618Z,100.00
2023-02-08T06:08:09.219Z,100.00
2023-02-08T06:10:14.569Z,100.00
2023-02-08T06:12:19.115Z,100.00
2023-02-08T06:14:23.935Z,100.00
2023-02-08T06:16:28.795Z,100.00
2023-02-08T06:18:34.238Z,100.00
2023-02-08T06:20:42.128Z,100.00
2023-02-08T06:22:47.290Z,100.00
2023-02-08T06:24:52.102Z,100.00
2023-02-08T06:26:56.998Z,100.00
2023-02-08T06:29:02.235Z,100.00
2023-02-08T06:31:07.273Z,100.00
2023-02-08T06:33:13.917Z,100.00
2023-02-08T06:35:20.804Z,100.00
2023-02-08T06:37:28.302Z,100.00
2023-02-08T06:39:33.228Z,100.00
2023-02-08T06:41:38.194Z,100.00
2023-02-08T06:43:43.186Z,100.00
2023-02-08T06:45:48.520Z,100.00
2023-02-08T06:47:53.423Z,100.00
2023-02-08T06:49:58.203Z,100.00
2023-02-08T06:52:03.057Z,100.00
2023-02-08T06:54:10.664Z,100.00
2023-02-08T06:56:15.571Z,100.00
2023-02-08T06:58:21.021Z,100.00
2023-02-08T07:00:26.127Z,100.00
2023-02-08T07:02:31.205Z,100.00
2023-02-08T07:04:36.045Z,100.00
2023-02-08T07:06:41.021Z,100.00
2023-02-08T07:08:45.661Z,100.00
2023-02-08T07:10:53.149Z,100.00
2023-02-08T07:12:58.043Z,100.00
2023-02-08T07:15:02.890Z,100.00
2023-02-08T07:17:07.839Z,100.00
2023-02-08T07:19:13.404Z,100.00
2023-02-08T07:21:18.388Z,100.00
2023-02-08T07:23:23.178Z,100.00
2023-02-08T07:25:28.073Z,100.00
2023-02-08T07:27:38.136Z,100.00
2023-02-08T07:29:43.807Z,100.00
2023-02-08T07:31:48.704Z,100.00
2023-02-08T07:33:53.516Z,100.00
2023-02-08T07:35:58.422Z,100.00
2023-02-08T07:38:03.290Z,100.00
2023-02-08T07:40:08.927Z,100.00
2023-02-08T07:42:14.092Z,100.00
2023-02-08T07:44:33.446Z,100.00
2023-02-08T07:46:38.411Z,100.00
2023-02-08T07:48:46.058Z,100.00
2023-02-08T07:50:51.755Z,100.00
2023-02-08T07:52:56.539Z,100.00
2023-02-08T07:55:01.312Z,100.00
2023-02-08T07:57:06.273Z,100.00
2023-02-08T07:59:11.097Z,100.00
2023-02-08T08:01:22.540Z,100.00
2023-02-08T08:03:28.236Z,100.00
2023-02-08T08:05:33.060Z,100.00
2023-02-08T08:07:38.033Z,100.00
2023-02-08T08:09:42.809Z,100.00
2023-02-08T08:11:47.607Z,100.00
2023-02-08T08:13:52.924Z,100.00
2023-02-08T08:15:58.567Z,100.00
2023-02-08T08:18:05.986Z,100.00
2023-02-08T08:20:12.655Z,100.00
2023-02-08T08:22:17.447Z,100.00
2023-02-08T08:24:22.423Z,100.00
2023-02-08T08:26:27.257Z,100.00
2023-02-08T08:28:32.305Z,100.00
2023-02-08T08:30:37.278Z,100.00
2023-02-08T08:32:42.494Z,100.00
2023-02-08T08:34:49.907Z,100.00
2023-02-08T08:36:54.686Z,100.00
2023-02-08T08:38:59.514Z,100.00
2023-02-08T08:41:04.376Z,100.00
2023-02-08T08:43:09.229Z,100.00
2023-02-08T08:45:14.441Z,100.00
2023-02-08T08:47:18.990Z,100.00
2023-02-08T08:49:23.820Z,100.00
2023-02-08T08:51:35.283Z,100.00
2023-02-08T08:53:40.198Z,100.00
2023-02-08T08:55:45.797Z,100.00
2023-02-08T08:57:50.903Z,100.00
2023-02-08T08:59:55.502Z,100.00
2023-02-08T09:02:00.516Z,100.00
2023-02-08T09:04:05.549Z,100.00
2023-02-08T09:06:10.582Z,100.00
2023-02-08T09:08:17.736Z,100.00
2023-02-08T09:10:22.697Z,100.00
2023-02-08T09:12:27.554Z,100.00
2023-02-08T09:14:32.469Z,100.00
2023-02-08T09:16:37.773Z,100.00
2023-02-08T09:18:42.737Z,100.00
2023-02-08T09:20:47.613Z,100.00
2023-02-08T09:22:53.803Z,100.00
2023-02-08T09:25:02.168Z,100.00
2023-02-08T09:27:07.405Z,100.00
2023-02-08T09:29:12.375Z,100.00
2023-02-08T09:31:23.637Z,100.00
2023-02-08T09:33:28.594Z,100.00
2023-02-08T09:35:33.416Z,100.00
2023-02-08T09:37:38.407Z,100.00
2023-02-08T09:39:43.486Z,100.00
2023-02-08T09:41:59.079Z,100.00
2023-02-08T09:44:18.590Z,100.00
2023-02-08T09:46:25.327Z,100.00
2023-02-08T09:48:34.830Z,100.00
2023-02-08T09:50:44.455Z,100.00
2023-02-08T09:52:57.864Z,100.00
2023-02-08T09:55:07.033Z,100.00
2023-02-08T09:57:21.268Z,100.00
2023-02-08T09:59:28.715Z,100.00
2023-02-08T10:01:36.904Z,100.00
2023-02-08T10:03:45.124Z,100.00
2023-02-08T10:05:49.962Z,100.00
2023-02-08T10:07:54.967Z,100.00
2023-02-08T10:10:02.879Z,100.00
2023-02-08T10:12:21.492Z,100.00
2023-02-08T10:14:42.253Z,100.00
2023-02-08T10:16:58.624Z,100.00
2023-02-08T10:19:17.096Z,100.00
2023-02-08T10:21:50.121Z,100.00
2023-02-08T10:24:19.448Z,100.00
2023-02-08T10:26:31.440Z,100.00
2023-02-08T10:28:54.271Z,100.00
2023-02-08T10:31:05.033Z,100.00
2023-02-08T10:33:17.102Z,100.00
2023-02-08T10:35:28.887Z,100.00
2023-02-08T10:37:36.544Z,100.00
2023-02-08T10:39:42.813Z,100.00
2023-02-08T10:41:48.677Z,100.00
2023-02-08T10:44:05.079Z,100.00
2023-02-08T10:46:16.849Z,100.00
2023-02-08T10:48:32.280Z,99.59
2023-02-08T10:50:40.220Z,99.05
2023-02-08T10:52:45.136Z,98.88
2023-02-08T10:54:49.969Z,100.00
2023-02-08T10:56:58.823Z,99.18
2023-02-08T10:59:14.570Z,100.00
2023-02-08T11:01:19.490Z,99.41
2023-02-08T11:03:26.511Z,100.00
2023-02-08T11:05:37.059Z,100.00
2023-02-08T11:07:42.484Z,99.75
2023-02-08T11:09:47.302Z,99.06
2023-02-08T11:11:53.686Z,98.72
2023-02-08T11:14:12.908Z,98.25
2023-02-08T11:16:25.807Z,97.04
2023-02-08T11:18:33.430Z,97.99
2023-02-08T11:20:41.869Z,99.25
2023-02-08T11:22:48.877Z,96.93
2023-02-08T11:24:59.709Z,98.53
2023-02-08T11:27:04.856Z,97.78
2023-02-08T11:29:17.193Z,95.32
2023-02-08T11:31:23.780Z,95.66
2023-02-08T11:33:29.910Z,95.12
2023-02-08T11:35:35.060Z,94.75
2023-02-08T11:37:40.015Z,95.42
2023-02-08T11:39:49.829Z,96.58
2023-02-08T11:41:59.439Z,96.95
2023-02-08T11:44:08.678Z,97.14
2023-02-08T11:46:16.203Z,97.51
2023-02-08T11:48:27.843Z,96.73
2023-02-08T11:50:36.033Z,96.13
2023-02-08T11:52:46.364Z,94.54
2023-02-08T11:54:51.297Z,95.82
2023-02-08T11:57:05.537Z,93.45
2023-02-08T11:59:22.083Z,95.51
2023-02-08T12:01:32.570Z,95.32
2023-02-08T12:03:40.975Z,91.81
2023-02-08T12:05:52.695Z,91.76
2023-02-08T12:08:07.489Z,91.63
2023-02-08T12:10:24.365Z,92.87
2023-02-08T12:12:40.757Z,90.86
2023-02-08T12:14:58.157Z,90.78
2023-02-08T12:17:35.323Z,91.11
2023-02-08T12:20:09.468Z,90.78
2023-02-08T12:22:19.886Z,90.74
2023-02-08T12:24:32.858Z,90.52
2023-02-08T12:26:57.329Z,90.75
2023-02-08T12:29:25.872Z,91.04
2023-02-08T12:31:47.465Z,90.85
2023-02-08T12:34:05.482Z,91.16
2023-02-08T12:36:27.648Z,90.33
2023-02-08T12:39:18.329Z,90.46
2023-02-08T12:41:32.926Z,91.46
2023-02-08T12:43:58.515Z,88.27
2023-02-08T12:46:22.395Z,87.59
2023-02-08T12:48:46.645Z,86.16
2023-02-08T12:50:59.140Z,87.85
2023-02-08T12:53:08.823Z,88.44
2023-02-08T12:55:20.691Z,88.89
2023-02-08T12:57:30.163Z,89.21
2023-02-08T12:59:43.189Z,85.61
2023-02-08T13:01:51.594Z,86.89
2023-02-08T13:04:03.596Z,87.38
2023-02-08T13:06:19.444Z,87.62
2023-02-08T13:08:32.182Z,85.74
2023-02-08T13:10:42.267Z,87.05
2023-02-08T13:12:53.415Z,87.21
2023-02-08T13:15:04.217Z,86.13
2023-02-08T13:17:18.721Z,85.91
2023-02-08T13:19:32.409Z,87.16
2023-02-08T13:21:43.856Z,86.13
2023-02-08T13:23:53.148Z,86.41
2023-02-08T13:26:01.293Z,86.28
2023-02-08T13:28:09.221Z,85.63
2023-02-08T13:30:21.222Z,85.40
2023-02-08T13:32:31.335Z,85.95
2023-02-08T13:34:40.527Z,85.82
2023-02-08T13:36:55.878Z,87.20
2023-02-08T13:39:01.986Z,86.79
2023-02-08T13:41:19.994Z,87.15
2023-02-08T13:43:35.621Z,88.49
2023-02-08T13:45:45.436Z,87.41
2023-02-08T13:47:54.338Z,87.42
2023-02-08T13:50:05.127Z,86.24
2023-02-08T13:52:13.756Z,87.17
2023-02-08T13:54:18.593Z,86.76
2023-02-08T13:56:42.995Z,84.92
2023-02-08T13:59:05.996Z,85.04
2023-02-08T14:01:25.067Z,85.25
2023-02-08T14:03:31.638Z,85.77
2023-02-08T14:05:53.347Z,86.29
2023-02-08T14:08:03.625Z,86.52
2023-02-08T14:10:19.573Z,86.67
2023-02-08T14:12:34.649Z,86.85
2023-02-08T14:14:41.231Z,88.06
2023-02-08T14:16:47.397Z,89.92
2023-02-08T14:18:54.995Z,89.09
2023-02-08T14:21:05.849Z,88.00
2023-02-08T14:23:25.033Z,89.24
2023-02-08T14:25:33.652Z,90.14
2023-02-08T14:27:44.663Z,90.70
2023-02-08T14:30:00.131Z,90.90
2023-02-08T14:32:05.311Z,91.82
2023-02-08T14:34:23.523Z,93.18
2023-02-08T14:36:32.917Z,92.61
2023-02-08T14:38:54.920Z,92.15
2023-02-08T14:41:01.238Z,92.97
2023-02-08T14:43:07.604Z,92.37
2023-02-08T14:45:30.475Z,92.02
2023-02-08T14:48:21.753Z,92.19
2023-02-08T14:50:31.209Z,92.73
2023-02-08T14:52:37.437Z,93.33
2023-02-08T14:54:49.840Z,92.89
2023-02-08T14:57:00.242Z,93.69
2023-02-08T14:59:10.392Z,93.54
2023-02-08T15:01:20.458Z,94.29
2023-02-08T15:03:26.575Z,95.03
2023-02-08T15:05:36.254Z,95.82
2023-02-08T15:07:45.374Z,95.06
2023-02-08T15:09:52.980Z,97.07
2023-02-08T15:12:09.586Z,97.26
2023-02-08T15:14:23.319Z,95.82
2023-02-08T15:16:32.890Z,95.89
2023-02-08T15:18:37.779Z,96.63
2023-02-08T15:20:44.156Z,96.06
2023-02-08T15:22:49.272Z,97.11
2023-02-08T15:24:59.445Z,96.79
2023-02-08T15:27:06.791Z,96.71
2023-02-08T15:29:23.210Z,97.02
2023-02-08T15:31:34.266Z,98.96
2023-02-08T15:33:42.671Z,98.16
2023-02-08T15:35:48.964Z,99.15
2023-02-08T15:37:55.742Z,99.18
2023-02-08T15:40:05.358Z,99.10
2023-02-08T15:42:19.511Z,99.18
2023-02-08T15:44:28.046Z,100.00
2023-02-08T15:46:34.006Z,100.00
2023-02-08T15:48:41.318Z,100.00
2023-02-08T15:50:46.274Z,100.00
2023-02-08T15:52:54.935Z,100.00
2023-02-08T15:54:59.832Z,100.00
2023-02-08T15:57:11.729Z,100.00
2023-02-08T15:59:23.740Z,100.00
2023-02-08T16:01:28.650Z,100.00
2023-02-08T16:03:35.004Z,100.00
2023-02-08T16:05:41.072Z,100.00
2023-02-08T16:07:48.319Z,100.00
2023-02-08T16:09:53.574Z,100.00
2023-02-08T16:11:59.432Z,100.00
2023-02-08T16:14:08.146Z,100.00
2023-02-08T16:16:21.896Z,100.00
2023-02-08T16:18:46.243Z,100.00
2023-02-08T16:20:59.775Z,100.00
2023-02-08T16:23:06.806Z,100.00
2023-02-08T16:25:36.128Z,100.00
2023-02-08T16:27:41.179Z,100.00
2023-02-08T16:29:50.381Z,100.00
2023-02-08T16:32:03.704Z,100.00
2023-02-08T16:34:15.775Z,100.00
2023-02-08T16:36:25.925Z,100.00
2023-02-08T16:38:34.022Z,100.00
2023-02-08T16:40:49.261Z,100.00
2023-02-08T16:42:54.101Z,100.00
2023-02-08T16:45:20.912Z,100.00
2023-02-08T16:47:30.417Z,100.00
2023-02-08T16:49:35.212Z,100.00
2023-02-08T16:51:44.512Z,100.00
2023-02-08T16:53:49.787Z,100.00
2023-02-08T16:55:54.697Z,100.00
2023-02-08T16:58:01.219Z,100.00
2023-02-08T17:00:16.916Z,100.00
2023-02-08T17:02:21.519Z,100.00
2023-02-08T17:04:28.811Z,100.00
2023-02-08T17:06:36.906Z,100.00
2023-02-08T17:08:41.869Z,100.00
2023-02-08T17:10:51.679Z,100.00
2023-02-08T17:13:13.350Z,100.00
2023-02-08T17:15:25.222Z,100.00
2023-02-08T17:17:30.417Z,100.00
2023-02-08T17:19:35.292Z,100.00
2023-02-08T17:21:40.085Z,100.00
2023-02-08T17:23:45.175Z,100.00
2023-02-08T17:25:49.929Z,100.00
2023-02-08T17:27:57.501Z,100.00
2023-02-08T17:30:02.432Z,100.00
2023-02-08T17:32:10.409Z,100.00
2023-02-08T17:34:17.779Z,100.00
2023-02-08T17:36:23.061Z,100.00
2023-02-08T17:38:28.695Z,100.00
2023-02-08T17:40:36.605Z,100.00
2023-02-08T17:42:41.678Z,100.00
2023-02-08T17:44:46.674Z,100.00
2023-02-08T17:46:51.518Z,100.00
2023-02-08T17:49:00.691Z,100.00
2023-02-08T17:51:10.157Z,100.00
2023-02-08T17:53:16.015Z,100.00
2023-02-08T17:55:22.854Z,100.00
2023-02-08T17:57:27.729Z,100.00
2023-02-08T17:59:32.633Z,100.00
2023-02-08T18:01:37.563Z,100.00
2023-02-08T18:03:42.429Z,100.00
2023-02-08T18:05:49.816Z,100.00
2023-02-08T18:07:55.423Z,100.00
2023-02-08T18:10:00.257Z,100.00
2023-02-08T18:12:05.077Z,100.00
2023-02-08T18:14:10.010Z,100.00
2023-02-08T18:16:17.119Z,100.00
2023-02-08T18:18:21.999Z,100.00
2023-02-08T18:20:26.914Z,100.00
2023-02-08T18:22:34.327Z,100.00
2023-02-08T18:24:41.230Z,100.00
2023-02-08T18:26:46.457Z,100.00
2023-02-08T18:28:51.285Z,100.00
2023-02-08T18:31:03.978Z,100.00
2023-02-08T18:33:10.756Z,100.00
2023-02-08T18:35:15.721Z,100.00
2023-02-08T18:37:20.621Z,100.00
2023-02-08T18:39:28.360Z,100.00
2023-02-08T18:41:33.629Z,100.00
2023-02-08T18:43:39.118Z,100.00
2023-02-08T18:45:46.037Z,100.00
2023-02-08T18:47:51.034Z,100.00
2023-02-08T18:49:57.659Z,100.00
2023-02-08T18:52:02.503Z,100.00
2023-02-08T18:54:07.433Z,100.00
2023-02-08T18:56:15.410Z,100.00
2023-02-08T18:58:20.397Z,100.00
2023-02-08T19:00:26.064Z,100.00
2023-02-08T19:02:31.599Z,100.00
2023-02-08T19:04:40.042Z,100.00
2023-02-08T19:06:45.271Z,100.00
2023-02-08T19:08:51.703Z,100.00
2023-02-08T19:10:56.947Z,100.00
2023-02-08T19:13:05.165Z,100.00
2023-02-08T19:15:11.053Z,100.00
2023-02-08T19:17:16.057Z,100.00
2023-02-08T19:19:20.936Z,100.00
2023-02-08T19:21:26.314Z,100.00
2023-02-08T19:23:32.242Z,100.00
2023-02-08T19:25:40.937Z,100.00
2023-02-08T19:27:46.640Z,100.00
2023-02-08T19:29:56.375Z,100.00
2023-02-08T19:32:01.825Z,100.00
2023-02-08T19:34:08.059Z,100.00
2023-02-08T19:36:14.683Z,100.00
2023-02-08T19:38:19.705Z,100.00
2023-02-08T19:40:25.613Z,100.00
2023-02-08T19:42:32.027Z,100.00
2023-02-08T19:44:38.402Z,100.00
2023-02-08T19:46:51.023Z,100.00
2023-02-08T19:49:00.295Z,100.00
2023-02-08T19:51:05.936Z,100.00
2023-02-08T19:53:10.926Z,100.00
2023-02-08T19:55:16.824Z,100.00
2023-02-08T19:57:23.401Z,100.00
2023-02-08T19:59:34.132Z,100.00
2023-02-08T20:01:40.685Z,100.00
2023-02-08T20:03:49.895Z,100.00
2023-02-08T20:05:59.133Z,100.00
2023-02-08T20:08:05.266Z,100.00
2023-02-08T20:10:11.258Z,100.00
2023-02-08T20:12:16.149Z,100.00
2023-02-08T20:14:21.882Z,100.00
2023-02-08T20:16:28.106Z,100.00
2023-02-08T20:18:34.791Z,100.00
2023-02-08T20:20:43.752Z,100.00
2023-02-08T20:22:48.804Z,100.00
2023-02-08T20:24:54.835Z,100.00
2023-02-08T20:27:00.305Z,100.00
2023-02-08T20:29:06.613Z,100.00
2023-02-08T20:31:15.639Z,100.00
2023-02-08T20:33:21.217Z,100.00
2023-02-08T20:35:26.576Z,100.00
2023-02-08T20:37:34.655Z,100.00
2023-02-08T20:39:39.924Z,100.00
2023-02-08T20:41:47.671Z,100.00
2023-02-08T20:43:53.808Z,100.00
2023-02-08T20:45:59.588Z,100.00
2023-02-08T20:48:04.831Z,100.00
2023-02-08T20:50:18.733Z,100.00
2023-02-08T20:52:25.146Z,100.00
2023-02-08T20:54:32.838Z,100.00
2023-02-08T20:56:39.868Z,100.00
2023-02-08T20:58:45.495Z,100.00
2023-02-08T21:00:50.970Z,100.00
2023-02-08T21:02:56.984Z,100.00
2023-02-08T21:05:02.073Z,100.00
2023-02-08T21:07:07.019Z,100.00
2023-02-08T21:09:14.852Z,100.00
2023-02-08T21:11:23.963Z,100.00
2023-02-08T21:13:29.553Z,100.00
2023-02-08T21:15:34.524Z,100.00
2023-02-08T21:17:41.101Z,100.00
2023-02-08T21:19:47.762Z,100.00
2023-02-08T21:21:53.636Z,100.00
2023-02-08T21:23:58.862Z,100.00
2023-02-08T21:26:05.212Z,100.00
2023-02-08T21:28:12.906Z,100.00
2023-02-08T21:30:17.894Z,100.00
2023-02-08T21:32:22.839Z,100.00
2023-02-08T21:34:27.713Z,100.00
2023-02-08T21:36:32.938Z,100.00
2023-02-08T21:38:37.867Z,100.00
2023-02-08T21:40:43.105Z,100.00
2023-02-08T21:42:48.132Z,100.00
2023-02-08T21:44:56.418Z,100.00
2023-02-08T21:47:01.339Z,100.00
2023-02-08T21:49:19.029Z,100.00
2023-02-08T21:51:37.663Z,100.00
2023-02-08T21:53:55.030Z,100.00
2023-02-08T21:56:00.309Z,100.00
2023-02-08T21:58:05.169Z,100.00
2023-02-08T22:00:14.423Z,100.00
2023-02-08T22:02:23.421Z,100.00
2023-02-08T22:04:28.390Z,100.00
2023-02-08T22:06:45.676Z,100.00
2023-02-08T22:08:50.590Z,100.00
2023-02-08T22:11:04.659Z,100.00
2023-02-08T22:13:09.851Z,100.00
2023-02-08T22:15:19.637Z,100.00
2023-02-08T22:17:24.480Z,100.00
2023-02-08T22:19:29.415Z,100.00
2023-02-08T22:21:34.315Z,100.00
2023-02-08T22:23:41.128Z,100.00
2023-02-08T22:25:46.008Z,100.00
2023-02-08T22:27:51.155Z,100.00
2023-02-08T22:29:56.220Z,100.00
2023-02-08T22:32:05.552Z,100.00
2023-02-08T22:34:10.786Z,100.00
2023-02-08T22:36:15.515Z,100.00
2023-02-08T22:38:20.375Z,100.00
2023-02-08T22:40:25.242Z,100.00
2023-02-08T22:42:30.632Z,100.00
2023-02-08T22:44:35.492Z,100.00
2023-02-08T22:46:41.604Z,100.00
2023-02-08T22:48:49.249Z,100.00
2023-02-08T22:50:54.191Z,100.00
2023-02-08T22:52:59.051Z,100.00
2023-02-08T22:55:04.282Z,100.00
2023-02-08T22:57:09.850Z,100.00
2023-02-08T22:59:14.727Z,100.00
2023-02-08T23:01:20.446Z,100.00
2023-02-08T23:03:26.348Z,100.00
2023-02-08T23:05:33.811Z,100.00
2023-02-08T23:07:38.829Z,100.00
2023-02-08T23:09:48.080Z,100.00
2023-02-08T23:11:53.564Z,100.00
2023-02-08T23:13:58.465Z,100.00
2023-02-08T23:16:03.377Z,100.00
2023-02-08T23:18:08.874Z,100.00
2023-02-08T23:20:14.816Z,100.00
2023-02-08T23:22:22.282Z,100.00
2023-02-08T23:24:27.235Z,100.00
2023-02-08T23:26:32.118Z,100.00
2023-02-08T23:28:37.953Z,100.00
2023-02-08T23:30:43.746Z,100.00
2023-02-08T23:32:48.809Z,100.00
2023-02-08T23:34:53.820Z,100.00
2023-02-08T23:36:58.401Z,100.00
2023-02-08T23:39:06.506Z,100.00
2023-02-08T23:41:13.935Z,100.00
2023-02-08T23:43:18.797Z,100.00
2023-02-08T23:45:24.342Z,100.00
2023-02-08T23:47:30.974Z,100.00
2023-02-08T23:49:36.237Z,100.00
2023-02-08T23:51:41.341Z,100.00
2023-02-08T23:53:46.856Z,100.00
2023-02-08T23:55:54.328Z,100.00
2023-02-08T23:57:59.493Z,100.00
